Time;durP1;ratioP1;P1;durP2;ratioP2;P2;SDS_P1;SDS_P2;PMS_P1;PMS_P2;Temp;Humidity;BMP_temperature;BMP_pressure;BME280_temperature;BME280_humidity;BME280_pressure;Samples;Min_cycle;Max_cycle;Signal;HPM_P1;HPM_P2
2021/04/17 00:01:43;;;;;;;4.90;1.30;;;;;;;5.80;71.61;101456.69;3553551;40;20054;-47
2021/04/17 00:04:11;;;;;;;4.38;1.30;;;;;;;5.42;74.73;101448.53;3553740;40;20126;-49
2021/04/17 00:06:38;;;;;;;5.00;1.10;;;;;;;5.41;75.51;101449.28;3554071;40;20285;-47
2021/04/17 00:09:11;;;;;;;3.00;1.23;;;;;;;6.01;72.09;101446.91;3553355;40;20447;-47
2021/04/17 00:11:39;;;;;;;1.40;0.80;;;;;;;6.11;71.00;101435.56;3553945;40;20054;-45
2021/04/17 00:14:10;;;;;;;2.58;1.17;;;;;;;5.75;73.37;101435.22;3553588;40;20723;-47
2021/04/17 00:16:36;;;;;;;2.15;1.08;;;;;;;5.61;74.56;101425.94;3553852;40;20057;-46
2021/04/17 00:19:04;;;;;;;3.65;1.35;;;;;;;5.82;72.39;101427.16;3553635;40;20199;-45
2021/04/17 00:21:31;;;;;;;2.72;1.00;;;;;;;5.44;74.46;101421.53;3554479;40;20086;-48
2021/04/17 00:23:59;;;;;;;4.13;0.95;;;;;;;5.55;73.11;101421.38;3555695;40;20092;-46
2021/04/17 00:26:26;;;;;;;2.65;1.10;;;;;;;5.47;72.90;101416.63;3554649;40;20150;-53
2021/04/17 00:28:53;;;;;;;3.05;0.93;;;;;;;5.38;72.98;101418.66;3554100;40;20069;-49
2021/04/17 00:31:19;;;;;;;3.85;0.90;;;;;;;5.62;71.27;101410.75;3550961;40;20060;-48
2021/04/17 00:33:46;;;;;;;3.20;1.05;;;;;;;5.69;70.69;101412.00;3553806;40;20054;-48
2021/04/17 00:36:13;;;;;;;1.48;1.05;;;;;;;5.66;70.89;101413.50;3553667;40;20054;-46
2021/04/17 00:38:39;;;;;;;4.32;1.10;;;;;;;5.44;73.15;101409.72;3554291;40;20061;-49
2021/04/17 00:41:06;;;;;;;3.97;1.15;;;;;;;5.49;72.57;101413.38;3553670;40;20451;-47
2021/04/17 00:43:33;;;;;;;1.42;0.93;;;;;;;5.28;74.10;101407.94;3553818;40;20062;-47
2021/04/17 00:45:59;;;;;;;2.80;1.17;;;;;;;5.45;72.23;101408.91;3553714;40;20094;-47
2021/04/17 00:48:26;;;;;;;2.20;0.90;;;;;;;5.27;71.82;101411.28;3553659;40;20056;-49
2021/04/17 00:50:55;;;;;;;1.40;0.90;;;;;;;5.58;71.58;101405.41;3553369;40;20058;-48
2021/04/17 00:53:21;;;;;;;2.25;1.10;;;;;;;6.04;68.58;101410.59;3550621;40;20057;-47
2021/04/17 00:55:48;;;;;;;2.97;0.98;;;;;;;5.74;70.85;101402.09;3553662;40;20184;-47
2021/04/17 00:58:14;;;;;;;3.45;0.85;;;;;;;5.65;70.18;101399.91;3553775;40;20448;-46
2021/04/17 01:00:41;;;;;;;1.30;1.02;;;;;;;5.86;69.67;101403.66;3554052;40;20090;-47
2021/04/17 01:03:17;;;;;;;6.20;1.10;;;;;;;5.85;69.46;101404.44;3553840;40;20066;-45
2021/04/17 01:05:46;;;;;;;1.45;0.98;;;;;;;5.71;69.80;101404.47;3553446;40;20072;-45
2021/04/17 01:08:45;;;;;;;3.75;1.20;;;;;;;5.60;70.62;101399.66;3553411;40;20106;-46
2021/04/17 01:11:18;;;;;;;2.63;0.93;;;;;;;5.52;70.58;101400.88;3553525;40;20489;-46
2021/04/17 01:13:45;;;;;;;3.35;1.00;;;;;;;5.70;68.85;101392.56;3553397;40;20144;-45
2021/04/17 01:16:12;;;;;;;1.42;0.82;;;;;;;5.93;69.54;101394.75;3553777;40;20493;-45
2021/04/17 01:18:42;;;;;;;2.83;1.00;;;;;;;6.04;68.16;101405.50;3553618;40;20058;-46
2021/04/17 01:21:10;;;;;;;1.35;0.80;;;;;;;5.95;69.23;101392.28;3556073;40;20058;-46
2021/04/17 01:23:53;;;;;;;1.40;0.88;;;;;;;5.92;68.56;101394.66;3553377;40;20085;-49
2021/04/17 01:26:22;;;;;;;3.00;1.00;;;;;;;6.09;66.54;101397.31;3553310;40;20694;-45
2021/04/17 01:28:54;;;;;;;1.55;0.98;;;;;;;6.08;67.49;101397.25;3553139;40;20054;-47
2021/04/17 01:31:25;;;;;;;2.05;0.93;;;;;;;5.76;68.31;101395.44;3550259;40;20064;-47
2021/04/17 01:33:56;;;;;;;1.92;0.90;;;;;;;5.65;69.79;101397.38;3552981;40;20180;-44
2021/04/17 01:36:24;;;;;;;5.25;1.00;;;;;;;5.75;68.45;101392.00;3550502;40;20375;-49
2021/04/17 01:38:55;;;;;;;2.53;0.98;;;;;;;5.66;69.48;101391.50;3553197;40;20066;-45
2021/04/17 01:41:38;;;;;;;2.42;1.20;;;;;;;5.83;68.41;101397.53;3550038;40;20152;-48
2021/04/17 01:44:11;;;;;;;2.63;0.90;;;;;;;6.02;67.32;101391.84;3552835;40;20192;-47
2021/04/17 01:46:49;;;;;;;2.10;1.02;;;;;;;6.05;67.82;101386.91;3553204;40;20117;-47
2021/04/17 01:49:17;;;;;;;2.97;0.95;;;;;;;5.97;67.65;101383.97;3555895;40;20076;-47
2021/04/17 01:51:46;;;;;;;2.00;0.90;;;;;;;6.25;66.37;101381.25;3553033;40;20061;-46
2021/04/17 01:54:20;;;;;;;1.58;0.70;;;;;;;6.09;67.00;101378.66;3552973;40;20062;-46
2021/04/17 01:56:49;;;;;;;1.60;0.70;;;;;;;6.18;66.36;101379.16;3553117;40;20101;-47
2021/04/17 01:59:19;;;;;;;2.42;0.93;;;;;;;6.05;67.26;101379.28;3553051;40;20141;-47
2021/04/17 02:01:46;;;;;;;2.67;0.90;;;;;;;6.05;68.15;101369.97;3552981;40;20097;-46
2021/04/17 02:04:13;;;;;;;2.58;1.20;;;;;;;6.20;66.68;101374.19;3552165;40;20061;-45
2021/04/17 02:06:40;;;;;;;1.63;1.17;;;;;;;6.07;66.62;101365.88;3553221;40;20146;-46
2021/04/17 02:09:07;;;;;;;3.65;1.05;;;;;;;6.22;66.22;101364.94;3552463;40;20053;-47
2021/04/17 02:11:34;;;;;;;2.15;1.15;;;;;;;6.29;66.13;101364.50;3552696;40;20045;-49
2021/04/17 02:14:01;;;;;;;1.42;0.80;;;;;;;6.27;66.06;101353.34;3552919;40;20086;-46
2021/04/17 02:16:40;;;;;;;2.25;1.02;;;;;;;6.33;66.06;101359.66;3553229;40;20343;-46
2021/04/17 02:19:18;;;;;;;3.05;1.13;;;;;;;6.01;67.54;101363.00;3556291;40;20136;-46
2021/04/17 02:21:47;;;;;;;3.90;0.88;;;;;;;5.87;68.28;101362.22;3553109;40;20049;-46
2021/04/17 02:24:14;;;;;;;4.25;0.90;;;;;;;6.09;66.35;101360.84;3552853;40;20951;-47
2021/04/17 02:26:42;;;;;;;1.60;0.82;;;;;;;6.27;65.77;101354.22;3553268;40;20070;-45
2021/04/17 02:29:08;;;;;;;2.20;1.10;;;;;;;5.96;67.10;101356.78;3555751;40;20419;-47
2021/04/17 02:31:35;;;;;;;2.70;1.05;;;;;;;5.95;66.64;101352.47;3553006;40;20093;-46
2021/04/17 02:34:03;;;;;;;7.32;4.63;;;;;;;5.75;67.64;101345.41;3552965;40;20345;-46
2021/04/17 02:36:30;;;;;;;5.25;2.83;;;;;;;5.94;66.71;101350.72;3552775;40;20143;-46
2021/04/17 02:38:57;;;;;;;2.42;1.60;;;;;;;6.11;65.84;101351.66;3552936;40;20089;-44
2021/04/17 02:41:23;;;;;;;2.75;1.60;;;;;;;6.10;65.65;101345.72;3552908;40;20056;-47
2021/04/17 02:43:50;;;;;;;1.92;1.27;;;;;;;5.77;66.62;101341.25;3552633;40;20456;-47
2021/04/17 02:46:17;;;;;;;3.55;1.23;;;;;;;5.69;67.64;101340.00;3553051;40;20345;-48
2021/04/17 02:48:44;;;;;;;3.10;0.80;;;;;;;5.69;67.95;101343.41;3552789;40;20069;-47
2021/04/17 02:51:10;;;;;;;2.60;1.25;;;;;;;5.86;67.29;101346.84;3553028;40;20094;-46
2021/04/17 02:53:37;;;;;;;2.50;1.45;;;;;;;5.94;66.57;101339.69;3552372;40;20049;-46
2021/04/17 02:56:04;;;;;;;2.05;1.30;;;;;;;6.30;64.39;101335.72;3552639;40;20077;-46
2021/04/17 02:58:31;;;;;;;2.38;1.30;;;;;;;5.84;66.70;101335.75;3552769;40;20348;-46
2021/04/17 03:00:58;;;;;;;4.63;1.33;;;;;;;5.90;65.97;101343.69;3552645;40;20057;-45
2021/04/17 03:03:36;;;;;;;3.42;1.33;;;;;;;5.90;67.23;101332.66;3552921;40;20053;-46
2021/04/17 03:06:03;;;;;;;3.70;1.00;;;;;;;5.75;67.32;101330.16;3552560;40;20170;-49
2021/04/17 03:08:30;;;;;;;2.80;0.80;;;;;;;5.96;67.24;101339.00;3552558;40;20046;-46
2021/04/17 03:10:57;;;;;;;2.67;1.02;;;;;;;6.01;65.74;101335.03;3552776;40;20402;-47
2021/04/17 03:13:24;;;;;;;2.85;1.20;;;;;;;5.87;67.63;101333.38;3552485;40;20562;-47
2021/04/17 03:15:50;;;;;;;2.83;1.35;;;;;;;5.72;67.71;101325.75;3553711;40;20069;-55
2021/04/17 03:18:17;;;;;;;2.63;1.33;;;;;;;6.06;66.16;101333.63;3554190;40;20057;-47
2021/04/17 03:20:43;;;;;;;3.97;0.90;;;;;;;5.93;66.78;101328.66;3593654;23;20042;-52
2021/04/17 03:23:10;;;;;;;2.72;1.00;;;;;;;5.73;67.65;101331.72;3568131;40;20073;-46
2021/04/17 03:25:36;;;;;;;4.90;1.13;;;;;;;5.66;68.11;101333.06;3566704;40;20061;-47
2021/04/17 03:28:04;;;;;;;2.78;0.98;;;;;;;5.81;68.11;101330.47;3567315;40;20074;-47
2021/04/17 03:30:30;;;;;;;4.63;1.05;;;;;;;6.24;66.26;101333.72;3566958;40;20085;-49
2021/04/17 03:32:59;;;;;;;2.00;0.82;;;;;;;6.03;66.39;101324.94;3565344;40;20413;-43
2021/04/17 03:35:27;;;;;;;3.17;1.02;;;;;;;5.75;67.62;101336.09;3565058;40;20063;-47
2021/04/17 03:37:53;;;;;;;3.63;1.05;;;;;;;6.16;66.58;101327.34;3565094;40;20080;-50
2021/04/17 03:40:21;;;;;;;3.13;0.70;;;;;;;5.93;67.39;101330.31;3561549;40;20415;-48
2021/04/17 03:42:48;;;;;;;2.22;1.23;;;;;;;5.90;66.75;101335.19;3564650;40;20069;-47
2021/04/17 03:45:16;;;;;;;2.65;1.10;;;;;;;5.70;68.45;101334.97;3565227;40;20067;-51
2021/04/17 03:47:42;;;;;;;2.83;1.10;;;;;;;5.52;69.99;101331.41;3565408;40;20082;-47
2021/04/17 03:50:09;;;;;;;2.95;0.98;;;;;;;5.62;69.18;101331.13;3564364;40;20391;-49
2021/04/17 03:52:37;;;;;;;2.70;0.90;;;;;;;5.54;69.48;101322.19;3564952;40;20072;-48
2021/04/17 03:55:06;;;;;;;2.63;0.80;;;;;;;5.63;69.58;101327.78;3565185;40;20140;-49
2021/04/17 03:57:34;;;;;;;1.95;1.15;;;;;;;5.53;69.86;101326.41;3565310;40;20065;-49
2021/04/17 04:00:02;;;;;;;3.63;1.20;;;;;;;5.51;70.54;101329.66;3565071;40;20064;-50
2021/04/17 04:02:28;;;;;;;3.10;1.20;;;;;;;5.61;70.05;101331.94;3564578;40;20061;-46
2021/04/17 04:04:55;;;;;;;2.22;1.10;;;;;;;5.41;70.96;101325.75;3564855;40;20065;-48
2021/04/17 04:07:21;;;;;;;6.35;1.02;;;;;;;5.88;69.22;101325.81;3565187;40;20069;-47
2021/04/17 04:09:48;;;;;;;2.00;1.20;;;;;;;5.87;68.13;101320.66;3568391;40;20160;-51
2021/04/17 04:12:15;;;;;;;1.77;1.15;;;;;;;5.53;69.56;101318.78;3565504;40;20216;-49
2021/04/17 04:14:41;;;;;;;3.55;1.05;;;;;;;5.99;66.62;101325.56;3564959;40;20052;-48
2021/04/17 04:17:08;;;;;;;4.30;1.40;;;;;;;5.81;67.85;101323.72;3564535;40;20034;-49
2021/04/17 04:19:35;;;;;;;2.67;1.50;;;;;;;5.85;67.15;101325.66;3564941;40;20057;-51
2021/04/17 04:22:01;;;;;;;3.47;1.20;;;;;;;6.03;67.17;101323.28;3564648;40;20140;-49
2021/04/17 04:24:28;;;;;;;1.30;0.82;;;;;;;5.65;67.56;101326.22;3564693;40;20098;-49
2021/04/17 04:26:54;;;;;;;1.77;0.90;;;;;;;6.06;65.81;101328.53;3564076;40;20068;-50
2021/04/17 04:29:21;;;;;;;4.70;1.13;;;;;;;5.96;65.66;101322.84;3564285;40;20322;-48
2021/04/17 04:31:47;;;;;;;1.85;0.93;;;;;;;5.82;65.80;101333.13;3564308;40;20125;-49
2021/04/17 04:34:14;;;;;;;2.05;0.90;;;;;;;5.71;66.28;101330.78;3564378;40;20120;-49
2021/04/17 04:36:41;;;;;;;4.53;1.10;;;;;;;6.08;65.00;101334.56;3565012;40;20064;-48
2021/04/17 04:39:08;;;;;;;3.80;1.58;;;;;;;6.00;64.67;101338.34;3564167;40;20050;-49
2021/04/17 04:41:35;;;;;;;1.48;1.08;;;;;;;5.79;64.90;101335.50;3564722;40;20096;-46
2021/04/17 04:44:03;;;;;;;3.63;0.98;;;;;;;5.71;64.71;101335.84;3564168;40;20080;-46
2021/04/17 04:46:31;;;;;;;2.25;0.98;;;;;;;5.62;65.34;101338.75;3564495;40;20068;-46
2021/04/17 04:48:58;;;;;;;1.70;0.82;;;;;;;5.48;65.61;101332.03;3564347;40;20415;-49
2021/04/17 04:51:25;;;;;;;4.53;1.10;;;;;;;5.53;65.68;101331.50;3564045;40;20327;-49
2021/04/17 04:53:53;;;;;;;1.52;1.00;;;;;;;5.30;66.62;101329.31;3563873;40;20049;-48
2021/04/17 04:56:20;;;;;;;1.95;0.90;;;;;;;5.69;65.49;101329.81;3563965;40;20049;-48
2021/04/17 04:58:51;;;;;;;1.70;1.20;;;;;;;5.48;66.14;101330.34;3564263;40;20406;-49
2021/04/17 05:01:18;;;;;;;2.40;1.00;;;;;;;5.39;66.27;101329.84;3564554;40;20098;-44
2021/04/17 05:03:44;;;;;;;2.05;0.85;;;;;;;5.57;66.89;101332.53;3564347;40;20326;-50
2021/04/17 05:06:11;;;;;;;5.65;1.05;;;;;;;5.34;66.93;101336.31;3564510;40;20093;-45
2021/04/17 05:08:38;;;;;;;2.55;1.17;;;;;;;5.44;67.31;101332.63;3564006;40;20058;-51
2021/04/17 05:11:04;;;;;;;3.55;1.08;;;;;;;5.73;66.64;101332.63;3563503;40;20105;-47
2021/04/17 05:13:31;;;;;;;2.63;1.02;;;;;;;5.77;66.69;101326.03;3563728;40;20065;-50
2021/04/17 05:15:57;;;;;;;1.52;1.13;;;;;;;5.98;65.22;101328.91;3564479;40;20085;-51
2021/04/17 05:18:24;;;;;;;3.50;1.10;;;;;;;6.12;65.85;101330.53;3564312;40;20057;-48
2021/04/17 05:20:51;;;;;;;3.17;0.82;;;;;;;5.85;66.39;101333.28;3564852;40;20107;-49
2021/04/17 05:23:17;;;;;;;4.05;1.60;;;;;;;6.08;66.40;101333.69;3567953;40;20056;-51
2021/04/17 05:25:44;;;;;;;7.70;6.63;;;;;;;6.02;65.99;101336.78;3564143;40;20321;-53
2021/04/17 05:28:11;;;;;;;3.42;1.75;;;;;;;6.04;65.79;101334.31;3564406;40;20057;-47
2021/04/17 05:30:38;;;;;;;1.95;1.10;;;;;;;6.15;66.78;101335.78;3564143;40;20065;-50
2021/04/17 05:33:05;;;;;;;2.03;0.93;;;;;;;6.18;65.84;101337.59;3563872;40;20120;-47
2021/04/17 05:35:32;;;;;;;4.47;1.25;;;;;;;6.35;65.35;101349.56;3564203;40;20060;-47
2021/04/17 05:37:59;;;;;;;3.08;1.38;;;;;;;6.31;65.83;101338.34;3565278;40;20538;-48
2021/04/17 05:40:25;;;;;;;3.42;1.10;;;;;;;6.35;65.92;101331.75;3569350;40;20418;-46
2021/04/17 05:42:52;;;;;;;3.28;1.15;;;;;;;6.12;66.64;101338.16;3566621;40;20057;-52
2021/04/17 05:45:18;;;;;;;4.20;1.33;;;;;;;6.57;65.81;101323.59;3564681;40;20101;-52
2021/04/17 05:47:45;;;;;;;3.45;1.58;;;;;;;6.51;66.74;101330.88;3564502;40;20065;-49
2021/04/17 05:50:12;;;;;;;4.00;1.42;;;;;;;6.46;65.94;101335.72;3564424;40;20069;-50
2021/04/17 05:52:39;;;;;;;2.95;1.20;;;;;;;6.43;67.52;101332.16;3563772;40;20053;-49
2021/04/17 05:55:07;;;;;;;4.80;1.33;;;;;;;6.42;66.62;101338.03;3564157;40;20068;-49
2021/04/17 05:57:33;;;;;;;3.90;1.13;;;;;;;6.40;66.74;101337.09;3563958;40;20057;-50
2021/04/17 06:00:00;;;;;;;4.35;1.40;;;;;;;6.64;66.35;101339.22;3563571;40;20415;-49
2021/04/17 06:02:26;;;;;;;5.68;1.30;;;;;;;6.62;66.73;101337.41;3562974;40;20093;-47
2021/04/17 06:04:53;;;;;;;1.30;0.90;;;;;;;6.52;66.34;101336.06;3563007;40;20061;-47
2021/04/17 06:07:19;;;;;;;3.55;1.35;;;;;;;6.84;64.99;101336.81;3562945;40;20049;-46
2021/04/17 06:09:46;;;;;;;3.40;1.40;;;;;;;6.86;65.72;101330.16;3562782;40;20053;-45
2021/04/17 06:12:13;;;;;;;3.72;1.40;;;;;;;6.69;65.87;101341.13;3563093;40;20068;-47
2021/04/17 06:14:40;;;;;;;5.53;1.30;;;;;;;6.95;65.43;101339.94;3561589;40;20053;-45
2021/04/17 06:17:07;;;;;;;5.00;1.17;;;;;;;7.04;64.87;101338.72;3561042;40;20049;-47
2021/04/17 06:19:34;;;;;;;3.47;1.55;;;;;;;7.24;63.24;101341.38;3558783;40;20061;-45
2021/04/17 06:22:02;;;;;;;2.38;0.95;;;;;;;7.15;63.81;101340.13;3559382;40;21358;-47
2021/04/17 06:24:29;;;;;;;3.13;1.25;;;;;;;7.25;63.77;101344.00;3559583;40;20073;-51
2021/04/17 06:26:55;;;;;;;3.17;1.48;;;;;;;7.36;63.25;101347.97;3559277;40;20049;-48
2021/04/17 06:29:23;;;;;;;3.00;1.25;;;;;;;7.21;62.80;101337.03;3559975;40;20431;-48
2021/04/17 06:31:49;;;;;;;5.03;1.38;;;;;;;7.34;62.56;101329.16;3560499;40;20056;-48
2021/04/17 06:34:16;;;;;;;4.32;1.27;;;;;;;7.10;63.96;101333.94;3561822;40;20056;-46
2021/04/17 06:36:46;;;;;;;7.53;2.40;;;;;;;7.11;63.36;101334.81;3561326;40;20074;-44
2021/04/17 06:39:13;;;;;;;4.57;1.30;;;;;;;7.28;62.05;101333.09;3560683;40;20055;-47
2021/04/17 06:41:42;;;;;;;2.22;1.20;;;;;;;7.25;62.85;101341.44;3558535;40;20089;-47
2021/04/17 06:44:13;;;;;;;4.47;1.50;;;;;;;7.27;62.71;101350.06;3558756;40;20041;-45
2021/04/17 06:46:41;;;;;;;5.88;1.30;;;;;;;6.93;63.92;101336.41;3558642;40;20049;-44
2021/04/17 06:49:09;;;;;;;3.67;1.75;;;;;;;6.72;64.06;101343.84;3558816;40;20907;-46
2021/04/17 06:51:38;;;;;;;4.05;1.13;;;;;;;7.00;63.93;101341.03;3560145;40;20053;-44
2021/04/17 06:54:09;;;;;;;2.50;1.35;;;;;;;6.74;64.75;101348.22;3560705;40;20059;-47
2021/04/17 06:56:36;;;;;;;3.53;1.23;;;;;;;7.07;64.77;101348.16;3559929;40;20057;-46
2021/04/17 06:59:03;;;;;;;5.45;1.50;;;;;;;7.31;63.86;101349.41;3560436;40;21200;-46
2021/04/17 07:01:30;;;;;;;4.18;1.20;;;;;;;7.36;63.50;101353.06;3560579;40;20045;-45
2021/04/17 07:04:00;;;;;;;6.40;1.52;;;;;;;7.29;63.11;101345.91;3563300;40;20084;-47
2021/04/17 07:06:27;;;;;;;2.72;1.38;;;;;;;7.10;63.71;101339.03;3563821;40;20061;-46
2021/04/17 07:08:53;;;;;;;2.22;1.10;;;;;;;7.43;62.80;101349.13;3564277;40;20068;-47
2021/04/17 07:11:20;;;;;;;2.97;1.33;;;;;;;7.37;63.16;101339.50;3560830;40;20057;-44
2021/04/17 07:14:08;;;;;;;5.03;1.40;;;;;;;7.39;64.05;101348.13;3564046;40;20389;-46
2021/04/17 07:17:01;;;;;;;4.78;1.65;;;;;;;7.48;63.71;101336.59;3562246;40;20093;-49
2021/04/17 07:19:43;;;;;;;4.10;1.63;;;;;;;7.43;63.86;101345.72;3561576;40;20057;-49
2021/04/17 07:22:16;;;;;;;5.80;1.40;;;;;;;7.47;63.96;101347.59;3563326;40;20456;-47
2021/04/17 07:24:44;;;;;;;2.58;1.45;;;;;;;7.87;62.88;101340.19;3564106;40;20053;-47
2021/04/17 07:27:30;;;;;;;4.97;1.55;;;;;;;7.68;63.36;101343.56;3563599;40;20049;-46
2021/04/17 07:29:58;;;;;;;4.20;1.70;;;;;;;7.26;64.22;101340.69;3563958;40;20041;-46
2021/04/17 07:32:24;;;;;;;4.30;1.65;;;;;;;7.45;64.43;101344.13;3563947;40;20108;-45
2021/04/17 07:35:05;;;;;;;3.95;1.70;;;;;;;8.10;62.78;101343.81;3563717;40;20042;-46
2021/04/17 07:37:32;;;;;;;4.68;1.75;;;;;;;8.05;62.90;101328.31;3561696;40;20057;-46
2021/04/17 07:40:23;;;;;;;6.65;2.03;;;;;;;7.97;63.76;101337.28;3563603;40;20600;-44
2021/04/17 07:42:55;;;;;;;8.48;2.47;;;;;;;7.70;63.93;101338.53;3563477;40;20455;-49
2021/04/17 07:45:35;;;;;;;6.35;2.33;;;;;;;7.77;64.87;101336.34;3560781;40;20721;-44
2021/04/17 07:48:27;;;;;;;6.05;1.80;;;;;;;7.33;66.22;101350.34;3563961;40;20056;-44
2021/04/17 07:50:55;;;;;;;10.05;2.50;;;;;;;7.76;65.93;101347.31;3563410;40;20096;-44
2021/04/17 07:53:35;;;;;;;4.85;2.17;;;;;;;8.07;64.90;101352.19;3560580;40;20089;-46
2021/04/17 07:56:25;;;;;;;7.68;2.35;;;;;;;7.83;64.20;101346.81;3563332;40;20068;-44
2021/04/17 07:59:06;;;;;;;8.70;2.20;;;;;;;7.52;65.64;101364.88;3563203;40;20399;-44
2021/04/17 08:01:34;;;;;;;5.13;2.15;;;;;;;7.88;65.89;101365.75;3560371;40;20480;-44
2021/04/17 08:04:02;;;;;;;4.63;2.22;;;;;;;8.57;63.54;101371.50;3563494;40;20367;-46
2021/04/17 08:06:29;;;;;;;7.95;2.42;;;;;;;8.57;63.00;101363.84;3563378;40;20053;-46
2021/04/17 08:09:00;;;;;;;5.88;2.50;;;;;;;8.12;64.36;101370.25;3563708;40;20127;-49
2021/04/17 08:11:29;;;;;;;7.85;2.17;;;;;;;8.20;63.77;101363.84;3563484;40;20412;-46
2021/04/17 08:13:57;;;;;;;9.68;1.92;;;;;;;7.62;65.77;101371.28;3563261;40;20084;-47
2021/04/17 08:16:28;;;;;;;7.13;2.95;;;;;;;8.67;63.67;101378.78;3562807;40;20102;-47
2021/04/17 08:18:56;;;;;;;8.65;2.85;;;;;;;8.37;64.21;101374.88;3559778;40;20542;-45
2021/04/17 08:21:24;;;;;;;6.97;2.85;;;;;;;8.16;63.80;101372.16;3559617;40;20049;-47
2021/04/17 08:23:52;;;;;;;6.10;2.17;;;;;;;7.89;65.82;101367.50;3562564;40;20386;-44
2021/04/17 08:26:19;;;;;;;11.55;2.58;;;;;;;8.71;63.10;101371.25;3563753;40;20101;-45
2021/04/17 08:28:49;;;;;;;8.40;2.30;;;;;;;8.75;62.42;101371.47;3563637;40;20093;-49
2021/04/17 08:31:30;;;;;;;8.00;2.47;;;;;;;8.69;61.81;101366.09;3563609;40;20054;-48
2021/04/17 08:34:08;;;;;;;8.95;2.45;;;;;;;9.37;61.24;101374.94;3563421;40;20069;-44
2021/04/17 08:36:55;;;;;;;8.15;2.85;;;;;;;8.77;61.64;101369.84;3563520;40;20120;-46
2021/04/17 08:39:34;;;;;;;9.68;2.22;;;;;;;9.05;62.46;101371.03;3557907;40;20079;-47
2021/04/17 08:42:02;;;;;;;7.95;2.67;;;;;;;9.30;60.96;101373.81;3562945;40;20049;-47
2021/04/17 08:44:34;;;;;;;6.85;2.42;;;;;;;9.04;60.70;101371.84;3561247;40;20049;-45
2021/04/17 08:47:04;;;;;;;7.80;2.45;;;;;;;10.21;58.54;101375.72;3563468;40;20366;-45
2021/04/17 08:49:33;;;;;;;9.63;2.40;;;;;;;9.73;59.11;101372.13;3562590;40;20403;-46
2021/04/17 08:52:09;;;;;;;7.70;2.50;;;;;;;9.32;61.03;101367.06;3561675;40;20141;-43
2021/04/17 08:54:39;;;;;;;7.03;2.90;;;;;;;9.16;60.92;101374.94;3558737;40;20078;-44
2021/04/17 08:57:16;;;;;;;9.32;2.90;;;;;;;8.62;62.86;101372.59;3560932;40;20158;-46
2021/04/17 08:59:54;;;;;;;8.25;3.08;;;;;;;8.68;63.83;101370.31;3567473;40;20053;-44
2021/04/17 09:02:26;;;;;;;7.93;2.80;;;;;;;8.58;64.09;101372.38;3560387;40;20041;-45
2021/04/17 09:05:14;;;;;;;8.18;2.90;;;;;;;9.54;63.10;101366.28;3559240;40;20076;-44
2021/04/17 09:07:44;;;;;;;9.25;2.97;;;;;;;9.55;62.10;101379.94;3560033;40;20074;-47
2021/04/17 09:10:23;;;;;;;6.65;2.55;;;;;;;10.28;59.71;101375.19;3560831;40;20055;-49
2021/04/17 09:13:09;;;;;;;7.13;2.45;;;;;;;10.18;57.65;101376.50;3558351;40;20060;-44
2021/04/17 09:15:58;;;;;;;6.53;2.80;;;;;;;9.83;59.26;101369.13;3560397;40;20110;-44
2021/04/17 09:18:37;;;;;;;4.90;2.65;;;;;;;10.38;58.89;101371.28;3560481;40;20053;-43
2021/04/17 09:21:11;;;;;;;8.75;3.30;;;;;;;10.41;57.70;101372.28;3562852;40;20083;-45
2021/04/17 09:23:43;;;;;;;6.22;3.05;;;;;;;11.10;55.34;101376.44;3562959;40;20061;-42
2021/04/17 09:26:31;;;;;;;4.68;2.70;;;;;;;10.95;56.50;101374.19;3561806;40;20531;-45
2021/04/17 09:29:01;;;;;;;8.50;3.05;;;;;;;11.56;56.67;101372.88;3562420;40;20105;-46
2021/04/17 09:31:34;;;;;;;11.75;2.97;;;;;;;12.51;53.16;101378.34;3563470;40;20050;-45
2021/04/17 09:34:08;;;;;;;6.82;2.88;;;;;;;12.63;51.34;101374.44;3563204;40;20057;-48
2021/04/17 09:36:35;;;;;;;10.77;3.95;;;;;;;12.64;51.71;101372.75;3563518;40;20080;-43
2021/04/17 09:39:21;;;;;;;8.30;2.95;;;;;;;11.75;52.79;101359.78;3562937;40;20061;-42
2021/04/17 09:41:50;;;;;;;5.90;2.50;;;;;;;12.29;52.91;101359.75;3562669;40;20423;-49
2021/04/17 09:44:19;;;;;;;6.88;3.15;;;;;;;12.32;51.67;101357.28;3562700;40;20049;-44
2021/04/17 09:46:47;;;;;;;5.70;2.92;;;;;;;11.34;54.24;101359.31;3563318;40;20116;-46
2021/04/17 09:49:38;;;;;;;9.88;3.22;;;;;;;11.10;55.60;101361.06;3563154;40;20061;-46
2021/04/17 09:52:06;;;;;;;7.78;3.15;;;;;;;12.20;52.04;101364.59;3562367;40;20362;-47
2021/04/17 09:54:33;;;;;;;7.13;3.22;;;;;;;11.31;55.24;101353.22;3562806;40;20108;-44
2021/04/17 09:57:05;;;;;;;5.20;3.00;;;;;;;13.23;51.71;101353.81;3562850;40;20085;-45
2021/04/17 09:59:32;;;;;;;8.27;3.10;;;;;;;14.25;46.90;101355.34;3563190;40;20081;-48
2021/04/17 10:01:59;;;;;;;9.45;3.33;;;;;;;14.55;45.58;101354.25;3562708;40;20394;-44
2021/04/17 10:04:47;;;;;;;8.68;3.40;;;;;;;17.12;40.51;101352.97;3562559;40;20093;-45
2021/04/17 10:07:15;;;;;;;7.45;3.47;;;;;;;17.27;40.18;101350.50;3562619;40;20056;-46
2021/04/17 10:09:43;;;;;;;6.13;2.97;;;;;;;17.87;39.42;101356.16;3562029;40;20054;-47
2021/04/17 10:12:11;;;;;;;7.72;3.45;;;;;;;16.85;40.84;101355.28;3562690;40;20101;-45
2021/04/17 10:14:37;;;;;;;5.18;3.35;;;;;;;17.28;39.21;101359.13;3562952;40;20085;-46
2021/04/17 10:17:04;;;;;;;7.70;4.00;;;;;;;15.84;41.16;101348.78;3562979;40;20072;-46
2021/04/17 10:19:31;;;;;;;8.18;3.42;;;;;;;17.47;41.46;101344.63;3562730;40;20045;-47
2021/04/17 10:22:00;;;;;;;6.47;3.85;;;;;;;18.23;37.94;101347.72;3562282;40;20053;-51
2021/04/17 10:24:31;;;;;;;9.35;4.03;;;;;;;19.23;36.73;101348.06;3561391;40;20061;-49
2021/04/17 10:27:09;;;;;;;7.30;3.30;;;;;;;19.43;36.16;101343.72;3562702;40;20080;-45
2021/04/17 10:29:48;;;;;;;9.98;4.13;;;;;;;18.21;37.32;101338.19;3562520;40;20167;-45
2021/04/17 10:32:19;;;;;;;10.73;4.35;;;;;;;16.63;40.85;101331.72;3562605;40;20040;-48
2021/04/17 10:35:08;;;;;;;11.80;4.57;;;;;;;14.63;46.37;101331.22;3562314;40;20057;-45
2021/04/17 10:37:54;;;;;;;10.25;4.57;;;;;;;14.73;45.12;101333.13;3557276;40;20053;-49
2021/04/17 10:40:26;;;;;;;6.30;3.50;;;;;;;16.58;42.95;101332.53;3559398;40;20053;-46
2021/04/17 10:43:03;;;;;;;8.52;3.83;;;;;;;17.39;39.33;101336.81;3559587;40;20070;-45
2021/04/17 10:45:30;;;;;;;8.52;3.80;;;;;;;15.63;43.47;101334.69;3560804;40;20073;-45
2021/04/17 10:48:01;;;;;;;9.30;4.60;;;;;;;15.36;44.42;101329.09;3562212;40;20096;-45
2021/04/17 10:50:31;;;;;;;9.40;4.72;;;;;;;14.87;46.09;101329.09;3558867;40;20760;-48
2021/04/17 10:53:04;;;;;;;8.68;3.97;;;;;;;15.15;44.89;101330.44;3560284;40;20053;-46
2021/04/17 10:55:32;;;;;;;9.95;5.20;;;;;;;13.78;48.14;101328.56;3560238;40;20072;-47
2021/04/17 10:57:59;;;;;;;15.95;5.63;;;;;;;13.00;51.16;101317.19;3560662;40;20071;-45
2021/04/17 11:00:33;;;;;;;11.18;4.68;;;;;;;14.68;49.22;101322.72;3561928;40;20404;-50
2021/04/17 11:03:00;;;;;;;12.93;5.32;;;;;;;13.89;50.25;101323.63;3561126;40;20060;-45
2021/04/17 11:05:33;;;;;;;12.48;4.85;;;;;;;15.54;50.27;101325.09;3562242;40;20064;-45
2021/04/17 11:08:03;;;;;;;10.95;4.78;;;;;;;16.93;42.90;101317.41;3560993;40;20056;-50
2021/04/17 11:10:37;;;;;;;7.75;4.45;;;;;;;17.51;40.49;101318.75;3561772;40;20068;-48
2021/04/17 11:13:05;;;;;;;9.43;4.40;;;;;;;16.61;42.57;101309.28;3561635;40;20142;-48
2021/04/17 11:15:33;;;;;;;12.73;4.60;;;;;;;16.74;43.34;101306.88;3561505;40;20605;-47
2021/04/17 11:18:15;;;;;;;13.93;5.05;;;;;;;15.64;46.80;101312.34;3561133;40;20092;-46
2021/04/17 11:20:49;;;;;;;13.57;4.55;;;;;;;15.55;45.49;101315.63;3561372;40;20091;-48
2021/04/17 11:23:31;;;;;;;10.60;4.57;;;;;;;16.67;44.81;101304.19;3561879;40;20318;-47
2021/04/17 11:26:00;;;;;;;8.55;4.57;;;;;;;15.72;45.08;101308.19;3561403;40;20065;-48
2021/04/17 11:28:27;;;;;;;11.52;4.95;;;;;;;15.75;44.00;101313.34;3561943;40;20037;-47
2021/04/17 11:30:55;;;;;;;11.18;4.93;;;;;;;13.95;47.38;101306.59;3562422;40;20072;-45
2021/04/17 11:33:23;;;;;;;9.32;4.75;;;;;;;14.60;48.91;101308.81;3559366;40;20104;-45
2021/04/17 11:35:49;;;;;;;13.77;5.07;;;;;;;13.94;49.81;101302.28;3563020;40;20065;-48
2021/04/17 11:38:16;;;;;;;12.60;5.70;;;;;;;13.61;51.50;101292.13;3564378;40;20080;-47
2021/04/17 11:40:44;;;;;;;6.75;4.57;;;;;;;14.98;48.64;101303.50;3564129;40;20296;-46
2021/04/17 11:43:11;;;;;;;11.30;5.13;;;;;;;15.12;49.06;101306.34;3563094;40;20054;-45
2021/04/17 11:45:37;;;;;;;5.93;4.07;;;;;;;14.67;50.12;101307.25;3563895;40;20076;-45